createdAt,value
2022-10-29T00:02:13.863Z,76.30
2022-10-29T00:04:41.732Z,75.80
2022-10-29T00:07:09.611Z,75.50
2022-10-29T00:09:37.457Z,77.20
2022-10-29T00:12:05.397Z,75.50
2022-10-29T00:14:34.623Z,76.00
2022-10-29T00:17:02.487Z,75.90
2022-10-29T00:19:30.365Z,74.10
2022-10-29T00:21:58.250Z,73.20
2022-10-29T00:24:26.101Z,72.30
2022-10-29T00:26:54.004Z,72.00
2022-10-29T00:29:21.879Z,72.10
2022-10-29T00:31:52.201Z,71.90
2022-10-29T00:34:20.076Z,73.80
2022-10-29T00:36:47.950Z,72.50
2022-10-29T00:39:16.031Z,73.70
2022-10-29T00:41:43.972Z,75.00
2022-10-29T00:44:26.740Z,73.60
2022-10-29T00:46:57.441Z,72.90
2022-10-29T00:49:25.590Z,71.30
2022-10-29T00:51:53.451Z,71.30
2022-10-29T00:54:21.299Z,71.60
2022-10-29T00:56:50.222Z,71.90
2022-10-29T00:59:18.531Z,73.80
2022-10-29T01:01:46.659Z,76.10
2022-10-29T01:04:15.970Z,75.80
2022-10-29T01:06:44.171Z,76.70
2022-10-29T01:09:11.999Z,76.20
2022-10-29T01:11:41.679Z,76.80
2022-10-29T01:14:12.419Z,76.40
2022-10-29T01:16:41.074Z,75.40
2022-10-29T01:19:12.481Z,75.40
2022-10-29T01:21:45.111Z,76.50
2022-10-29T01:24:32.698Z,76.60
2022-10-29T01:27:24.204Z,75.70
2022-10-29T01:29:56.852Z,75.90
2022-10-29T01:32:27.259Z,76.50
2022-10-29T01:34:58.366Z,76.90
2022-10-29T01:37:28.791Z,77.40
2022-10-29T01:39:57.802Z,77.60
2022-10-29T01:42:26.120Z,76.20
2022-10-29T01:44:55.191Z,76.10
2022-10-29T01:47:23.115Z,76.00
2022-10-29T01:49:52.771Z,76.20
2022-10-29T01:52:23.540Z,75.90
2022-10-29T01:54:51.430Z,76.40
2022-10-29T01:57:29.544Z,76.40
2022-10-29T01:59:57.755Z,76.10
2022-10-29T02:02:26.683Z,76.60
2022-10-29T02:04:59.066Z,76.80
2022-10-29T02:07:31.504Z,76.60
2022-10-29T02:10:00.775Z,76.50
2022-10-29T02:12:29.072Z,76.60
2022-10-29T02:14:58.268Z,77.00
2022-10-29T02:17:26.090Z,77.10
2022-10-29T02:19:53.983Z,76.90
2022-10-29T02:22:23.202Z,77.00
2022-10-29T02:24:51.063Z,76.70
2022-10-29T02:27:18.912Z,76.40
2022-10-29T02:29:46.801Z,76.50
2022-10-29T02:32:14.655Z,77.20
2022-10-29T02:34:42.532Z,77.80
2022-10-29T02:37:10.413Z,77.60
2022-10-29T02:39:39.719Z,76.80
2022-10-29T02:42:07.589Z,75.90
2022-10-29T02:44:35.471Z,75.50
2022-10-29T02:47:03.540Z,76.00
2022-10-29T02:49:31.394Z,75.60
2022-10-29T02:51:59.224Z,75.90
2022-10-29T02:54:27.467Z,76.10
2022-10-29T02:56:56.787Z,76.20
2022-10-29T02:59:24.699Z,74.70
2022-10-29T03:01:52.618Z,74.60
2022-10-29T03:04:20.569Z,76.10
2022-10-29T03:06:48.416Z,76.00
2022-10-29T03:09:16.276Z,75.70
2022-10-29T03:11:44.135Z,75.40
2022-10-29T03:14:13.369Z,76.20
2022-10-29T03:16:41.199Z,76.80
2022-10-29T03:19:09.088Z,77.30
2022-10-29T03:21:36.931Z,77.90
2022-10-29T03:24:05.283Z,77.40
2022-10-29T03:26:33.196Z,77.10
2022-10-29T03:29:02.057Z,77.70
2022-10-29T03:31:31.421Z,78.20
2022-10-29T03:33:59.305Z,77.00
2022-10-29T03:36:27.188Z,76.50
2022-10-29T03:38:55.053Z,77.30
2022-10-29T03:41:22.888Z,76.80
2022-10-29T03:43:50.958Z,76.90
2022-10-29T03:46:18.857Z,76.80
2022-10-29T03:48:49.833Z,76.30
2022-10-29T03:51:20.447Z,76.60
2022-10-29T03:53:48.412Z,76.00
2022-10-29T03:56:19.272Z,76.20
2022-10-29T03:58:47.152Z,76.00
2022-10-29T04:01:15.453Z,76.60
2022-10-29T04:03:44.134Z,76.80
2022-10-29T04:06:15.791Z,77.70
2022-10-29T04:08:43.809Z,77.30
2022-10-29T04:11:11.847Z,76.80
2022-10-29T04:13:39.743Z,76.70
2022-10-29T04:16:07.781Z,76.60
2022-10-29T04:18:35.622Z,76.70
2022-10-29T04:29:28.895Z,77.00
2022-10-29T04:31:56.729Z,77.10
2022-10-29T04:34:24.607Z,76.80
2022-10-29T04:36:52.589Z,76.60
2022-10-29T04:39:23.457Z,77.80
2022-10-29T04:41:51.518Z,76.90
2022-10-29T04:44:20.125Z,76.80
2022-10-29T04:46:48.035Z,75.80
2022-10-29T04:49:15.940Z,75.70
2022-10-29T04:51:43.885Z,76.50
2022-10-29T04:54:11.894Z,76.80
2022-10-29T04:56:41.239Z,76.80
2022-10-29T04:59:09.101Z,76.20
2022-10-29T05:01:37.073Z,76.10
2022-10-29T05:04:05.129Z,76.50
2022-10-29T05:06:32.999Z,76.60
2022-10-29T05:09:00.907Z,76.10
2022-10-29T05:11:28.805Z,76.60
2022-10-29T05:13:58.325Z,76.60
2022-10-29T05:16:26.558Z,76.40
2022-10-29T05:18:54.417Z,76.50
2022-10-29T05:21:22.250Z,76.50
2022-10-29T05:23:50.179Z,76.90
2022-10-29T05:26:18.032Z,76.90
2022-10-29T05:28:45.919Z,76.30
2022-10-29T05:31:15.113Z,75.90
2022-10-29T05:33:43.073Z,75.60
2022-10-29T05:36:10.959Z,76.50
2022-10-29T05:38:38.814Z,77.10
2022-10-29T05:41:06.677Z,76.30
2022-10-29T05:43:34.539Z,76.30
2022-10-29T05:46:03.209Z,76.50
2022-10-29T05:48:32.465Z,76.80
2022-10-29T05:51:00.441Z,77.20
2022-10-29T05:53:28.429Z,77.30
2022-10-29T05:55:56.292Z,77.90
2022-10-29T05:58:25.397Z,77.40
2022-10-29T06:00:54.517Z,77.60
2022-10-29T06:03:24.626Z,77.50
2022-10-29T06:05:53.973Z,77.50
2022-10-29T06:08:21.872Z,77.50
2022-10-29T06:10:49.780Z,77.60
2022-10-29T06:13:18.092Z,77.30
2022-10-29T06:15:45.975Z,76.50
2022-10-29T06:18:13.859Z,77.10
2022-10-29T06:20:43.712Z,76.80
2022-10-29T06:23:12.959Z,76.30
2022-10-29T06:25:40.819Z,76.20
2022-10-29T06:28:09.154Z,75.20
2022-10-29T06:30:37.185Z,76.20
2022-10-29T06:33:05.124Z,76.40
2022-10-29T06:35:36.370Z,75.70
2022-10-29T06:38:09.381Z,76.20
2022-10-29T06:40:41.473Z,76.20
2022-10-29T06:43:11.089Z,76.00
2022-10-29T06:45:39.291Z,75.50
2022-10-29T06:48:09.215Z,75.50
2022-10-29T06:50:37.603Z,75.60
2022-10-29T06:53:06.098Z,76.10
2022-10-29T06:55:34.418Z,75.70
2022-10-29T06:58:06.850Z,75.70
2022-10-29T07:00:35.156Z,75.00
2022-10-29T07:03:03.460Z,74.50
2022-10-29T07:05:31.370Z,73.10
2022-10-29T07:07:59.545Z,73.10
2022-10-29T07:10:27.938Z,72.10
2022-10-29T07:12:55.798Z,71.70
2022-10-29T07:15:27.838Z,69.70
2022-10-29T07:17:58.102Z,67.60
2022-10-29T07:20:26.345Z,66.20
2022-10-29T07:22:54.255Z,65.00
2022-10-29T07:25:22.131Z,65.80
2022-10-29T07:27:50.002Z,67.20
2022-10-29T07:30:17.919Z,66.60
2022-10-29T07:32:47.118Z,68.10
2022-10-29T07:35:15.140Z,68.70
2022-10-29T07:37:42.992Z,67.70
2022-10-29T07:40:11.685Z,67.70
2022-10-29T07:42:39.541Z,66.90
2022-10-29T07:45:08.046Z,66.70
2022-10-29T07:47:35.895Z,66.60
2022-10-29T07:50:05.412Z,66.50
2022-10-29T07:52:33.255Z,66.30
2022-10-29T07:55:02.805Z,66.60
2022-10-29T07:57:30.735Z,67.50
2022-10-29T07:59:58.634Z,67.80
2022-10-29T08:02:26.468Z,68.00
2022-10-29T08:04:54.358Z,67.10
2022-10-29T08:07:23.578Z,66.80
2022-10-29T08:09:51.509Z,67.00
2022-10-29T08:12:21.444Z,66.40
2022-10-29T08:14:49.349Z,66.60
2022-10-29T08:17:17.197Z,66.70
2022-10-29T08:19:45.423Z,68.40
2022-10-29T08:22:13.403Z,67.10
2022-10-29T08:24:42.676Z,66.60
2022-10-29T08:27:10.557Z,66.90
2022-10-29T08:29:38.450Z,65.80
2022-10-29T08:32:06.326Z,66.30
2022-10-29T08:34:34.201Z,66.20
2022-10-29T08:37:02.060Z,65.90
2022-10-29T08:39:29.947Z,64.50
2022-10-29T08:42:00.982Z,65.00
2022-10-29T08:44:33.630Z,64.40
2022-10-29T08:47:06.924Z,65.40
2022-10-29T08:49:36.472Z,66.10
2022-10-29T08:52:06.007Z,65.50
2022-10-29T08:54:34.674Z,64.40
2022-10-29T08:57:05.718Z,63.60
2022-10-29T08:59:33.861Z,61.60
2022-10-29T09:02:01.780Z,60.30
2022-10-29T09:04:34.398Z,62.30
2022-10-29T09:07:06.801Z,62.80
2022-10-29T09:09:36.098Z,64.50
2022-10-29T09:12:13.377Z,63.70
2022-10-29T09:14:45.295Z,62.50
2022-10-29T09:17:16.963Z,61.40
2022-10-29T09:19:48.791Z,60.60
2022-10-29T09:22:18.758Z,63.50
2022-10-29T09:24:48.245Z,63.10
2022-10-29T09:27:18.443Z,63.30
2022-10-29T09:29:48.880Z,63.00
2022-10-29T09:32:17.350Z,62.70
2022-10-29T09:34:46.653Z,61.80
2022-10-29T09:37:15.689Z,59.50
2022-10-29T09:39:43.595Z,58.90
2022-10-29T09:42:12.098Z,57.00
2022-10-29T09:44:41.596Z,55.40
2022-10-29T09:47:12.860Z,54.50
2022-10-29T09:49:45.543Z,53.80
2022-10-29T09:52:15.419Z,51.70
2022-10-29T09:54:43.298Z,49.70
2022-10-29T09:57:13.015Z,51.40
2022-10-29T09:59:43.351Z,49.90
2022-10-29T10:02:16.642Z,50.30
2022-10-29T10:04:45.398Z,48.90
2022-10-29T10:07:13.641Z,50.30
2022-10-29T10:09:55.154Z,48.80
2022-10-29T10:12:23.538Z,48.40
2022-10-29T10:15:00.984Z,49.30
2022-10-29T10:17:28.886Z,48.60
2022-10-29T10:19:56.881Z,49.10
2022-10-29T10:22:25.340Z,48.40
2022-10-29T10:24:53.514Z,47.60
2022-10-29T10:27:29.801Z,47.20
2022-10-29T10:30:16.084Z,48.70
2022-10-29T10:32:43.962Z,48.30
2022-10-29T10:35:27.874Z,47.30
2022-10-29T10:37:56.401Z,47.80
2022-10-29T10:40:25.671Z,48.60
2022-10-29T10:42:53.820Z,48.10
2022-10-29T10:45:26.073Z,47.60
2022-10-29T10:47:58.244Z,46.00
2022-10-29T10:50:27.687Z,46.20
2022-10-29T10:52:55.875Z,46.60
2022-10-29T10:55:26.887Z,45.70
2022-10-29T10:57:56.415Z,45.30
2022-10-29T11:00:26.210Z,45.60
2022-10-29T11:02:55.109Z,45.50
2022-10-29T11:05:23.719Z,45.00
2022-10-29T11:07:54.204Z,46.80
2022-10-29T11:10:32.160Z,45.20
2022-10-29T11:13:00.085Z,45.10
2022-10-29T11:15:31.723Z,44.20
2022-10-29T11:18:01.674Z,44.60
2022-10-29T11:20:32.215Z,44.60
2022-10-29T11:23:02.419Z,45.70
2022-10-29T11:25:31.515Z,42.90
2022-10-29T11:28:01.261Z,42.80
2022-10-29T11:30:30.607Z,43.70
2022-10-29T11:32:59.858Z,43.20
2022-10-29T11:35:31.112Z,43.50
2022-10-29T11:38:00.883Z,43.80
2022-10-29T11:40:31.366Z,45.30
2022-10-29T11:43:07.005Z,45.50
2022-10-29T11:45:40.188Z,45.30
2022-10-29T11:48:11.946Z,46.30
2022-10-29T11:50:42.134Z,45.10
2022-10-29T11:53:13.380Z,44.50
2022-10-29T11:55:42.305Z,45.00
2022-10-29T11:58:11.613Z,44.90
2022-10-29T12:00:45.534Z,45.70
2022-10-29T12:03:20.308Z,46.00
2022-10-29T12:05:51.844Z,45.30
2022-10-29T12:08:22.718Z,46.00
2022-10-29T12:10:51.431Z,45.90
2022-10-29T12:13:22.389Z,47.10
2022-10-29T12:15:53.618Z,46.20
2022-10-29T12:18:23.037Z,47.30
2022-10-29T12:20:52.132Z,47.70
2022-10-29T12:23:25.428Z,47.60
2022-10-29T12:25:56.870Z,46.80
2022-10-29T12:28:27.108Z,46.90
2022-10-29T12:31:01.852Z,47.90
2022-10-29T12:33:30.395Z,48.90
2022-10-29T12:35:59.394Z,49.50
2022-10-29T12:38:32.153Z,50.00
2022-10-29T12:41:01.178Z,50.00
2022-10-29T12:43:29.977Z,48.00
2022-10-29T12:48:52.810Z,48.30
2022-10-29T12:51:21.848Z,49.90
2022-10-29T12:53:53.718Z,52.10
2022-10-29T12:56:21.614Z,52.40
2022-10-29T12:58:50.108Z,50.60
2022-10-29T13:02:05.377Z,49.40
2022-10-29T13:04:28.089Z,49.50
2022-10-29T13:06:59.762Z,48.40
2022-10-29T13:09:27.801Z,48.50
2022-10-29T13:11:55.880Z,50.90
2022-10-29T13:14:25.165Z,49.90
2022-10-29T13:16:53.060Z,50.20
2022-10-29T13:19:23.856Z,49.20
2022-10-29T13:22:12.764Z,49.10
2022-10-29T13:24:42.198Z,49.10
2022-10-29T13:27:28.732Z,48.40
2022-10-29T13:30:17.462Z,48.70
2022-10-29T13:32:45.314Z,50.90
2022-10-29T13:35:31.976Z,50.40
2022-10-29T13:38:16.108Z,50.30
2022-10-29T13:41:01.810Z,49.10
2022-10-29T13:43:31.282Z,49.90
2022-10-29T13:46:03.801Z,49.60
2022-10-29T13:48:32.719Z,49.00
2022-10-29T13:51:00.627Z,50.90
2022-10-29T13:53:31.434Z,49.70
2022-10-29T13:55:59.424Z,50.30
2022-10-29T13:58:28.505Z,50.40
2022-10-29T14:00:58.528Z,51.10
2022-10-29T14:03:28.474Z,51.70
2022-10-29T14:05:57.521Z,51.20
2022-10-29T14:08:26.054Z,51.10
2022-10-29T14:10:54.831Z,52.10
2022-10-29T14:13:26.283Z,51.60
2022-10-29T14:16:02.018Z,52.20
2022-10-29T14:18:29.923Z,52.50
2022-10-29T14:20:57.950Z,53.10
2022-10-29T14:23:26.144Z,53.20
2022-10-29T14:25:54.152Z,53.20
2022-10-29T14:28:24.891Z,52.80
2022-10-29T14:31:04.446Z,53.40
2022-10-29T14:33:32.753Z,53.10
2022-10-29T14:36:02.425Z,53.40
2022-10-29T14:38:33.527Z,54.30
2022-10-29T14:41:01.387Z,54.80
2022-10-29T14:43:29.256Z,55.80
2022-10-29T14:45:57.322Z,55.60
2022-10-29T14:48:26.537Z,55.10
2022-10-29T14:50:56.675Z,55.50
2022-10-29T14:53:27.508Z,55.80
2022-10-29T14:55:55.377Z,57.10
2022-10-29T15:00:59.072Z,58.10
2022-10-29T15:03:29.214Z,58.20
2022-10-29T15:06:10.747Z,58.70
2022-10-29T15:08:39.579Z,58.10
2022-10-29T15:11:07.440Z,57.40
2022-10-29T15:13:35.479Z,57.50
2022-10-29T15:16:03.740Z,58.50
2022-10-29T15:18:33.773Z,58.90
2022-10-29T15:21:02.441Z,59.50
2022-10-29T15:23:32.324Z,60.50
2022-10-29T15:26:01.491Z,61.60
2022-10-29T15:28:30.288Z,62.00
2022-10-29T15:30:58.258Z,62.80
2022-10-29T15:33:26.540Z,61.90
2022-10-29T15:35:57.104Z,61.90
2022-10-29T15:38:52.685Z,62.90
2022-10-29T15:41:30.962Z,62.80
2022-10-29T15:43:59.478Z,62.20
2022-10-29T15:46:27.749Z,62.00
2022-10-29T15:48:55.657Z,62.70
2022-10-29T15:51:25.465Z,62.50
2022-10-29T15:53:53.489Z,62.00
2022-10-29T15:56:21.355Z,62.80
2022-10-29T15:58:49.333Z,62.50
2022-10-29T16:01:17.375Z,62.30
2022-10-29T16:03:45.427Z,62.20
2022-10-29T16:06:13.274Z,60.70
2022-10-29T16:08:42.799Z,61.10
2022-10-29T16:11:12.902Z,61.10
2022-10-29T16:13:40.805Z,61.20
2022-10-29T16:16:10.939Z,61.60
2022-10-29T16:18:38.845Z,61.30
2022-10-29T16:21:08.000Z,60.50
2022-10-29T16:23:37.946Z,61.90
2022-10-29T16:26:07.243Z,61.60
2022-10-29T16:28:35.112Z,62.40
2022-10-29T16:31:02.942Z,64.30
2022-10-29T16:33:30.898Z,64.40
2022-10-29T16:35:58.730Z,64.90
2022-10-29T16:38:26.597Z,65.00
2022-10-29T16:40:54.447Z,64.80
2022-10-29T16:43:23.751Z,63.50
2022-10-29T16:48:19.382Z,63.60
2022-10-29T16:50:47.212Z,65.30
2022-10-29T16:53:15.142Z,64.60
2022-10-29T16:55:42.994Z,64.90
2022-10-29T16:58:12.490Z,65.30
2022-10-29T17:00:41.770Z,64.90
2022-10-29T17:03:11.720Z,65.70
2022-10-29T17:05:40.190Z,66.30
2022-10-29T17:08:08.191Z,66.10
2022-10-29T17:10:36.184Z,66.70
2022-10-29T17:13:04.063Z,66.80
2022-10-29T17:15:31.908Z,66.90
2022-10-29T17:18:01.424Z,67.00
2022-10-29T17:20:29.619Z,66.70
2022-10-29T17:22:57.455Z,66.20
2022-10-29T17:25:25.380Z,66.20
2022-10-29T17:27:53.216Z,66.40
2022-10-29T17:30:21.089Z,66.40
2022-10-29T17:32:48.933Z,66.50
2022-10-29T17:35:18.318Z,66.40
2022-10-29T17:37:46.135Z,65.00
2022-10-29T17:40:14.006Z,64.40
2022-10-29T17:42:41.826Z,64.40
2022-10-29T17:45:10.443Z,65.20
2022-10-29T17:50:11.099Z,65.80
2022-10-29T17:52:40.319Z,65.50
2022-10-29T17:55:08.577Z,65.70
2022-10-29T17:57:36.407Z,65.50
2022-10-29T18:00:04.581Z,66.90
2022-10-29T18:02:32.447Z,66.50
2022-10-29T18:05:00.361Z,65.30
2022-10-29T18:07:28.206Z,65.60
2022-10-29T18:09:57.431Z,64.90
2022-10-29T18:12:25.306Z,65.30
2022-10-29T18:14:53.188Z,65.40
2022-10-29T18:17:21.039Z,65.50
2022-10-29T18:19:48.943Z,65.70
2022-10-29T18:22:16.804Z,65.80
2022-10-29T18:24:44.659Z,66.00
2022-10-29T18:27:13.892Z,68.30
2022-10-29T18:29:41.764Z,68.50
2022-10-29T18:32:09.615Z,68.90
2022-10-29T18:34:37.484Z,69.00
2022-10-29T18:37:06.631Z,68.60
2022-10-29T18:39:34.497Z,69.10
2022-10-29T18:42:02.352Z,68.00
2022-10-29T18:44:31.597Z,69.20
2022-10-29T18:46:59.440Z,69.10
2022-10-29T18:49:28.081Z,69.40
2022-10-29T18:51:55.977Z,68.80
2022-10-29T18:54:23.938Z,68.70
2022-10-29T18:56:51.840Z,69.10
2022-10-29T18:59:19.726Z,68.40
2022-10-29T19:01:49.178Z,68.80
2022-10-29T19:04:17.203Z,69.20
2022-10-29T19:06:45.062Z,69.40
2022-10-29T19:09:12.983Z,69.40
2022-10-29T19:11:41.064Z,68.70
2022-10-29T19:14:10.286Z,67.90
2022-10-29T19:16:38.111Z,68.00
2022-10-29T19:19:08.173Z,68.40
2022-10-29T19:21:36.828Z,68.30
2022-10-29T19:24:05.060Z,69.10
2022-10-29T19:26:33.593Z,69.20
2022-10-29T19:29:01.723Z,69.50
2022-10-29T19:31:30.152Z,69.70
2022-10-29T19:33:58.383Z,70.30
2022-10-29T19:36:27.766Z,70.50
2022-10-29T19:38:55.686Z,70.50
2022-10-29T19:41:23.516Z,70.70
2022-10-29T19:43:51.393Z,70.30
2022-10-29T19:46:19.651Z,69.60
2022-10-29T19:48:49.395Z,69.00
2022-10-29T19:51:17.247Z,68.70
2022-10-29T19:53:46.502Z,69.10
2022-10-29T19:56:14.391Z,69.80
2022-10-29T19:58:42.351Z,69.90
2022-10-29T20:01:12.263Z,69.10
2022-10-29T20:03:40.247Z,69.60
2022-10-29T20:06:09.308Z,69.50
2022-10-29T20:08:37.264Z,70.00
2022-10-29T20:11:06.714Z,69.90
2022-10-29T20:13:34.853Z,70.00
2022-10-29T20:16:07.355Z,69.60
2022-10-29T20:18:35.391Z,69.40
2022-10-29T20:21:03.251Z,69.00
2022-10-29T20:23:33.937Z,68.70
2022-10-29T20:26:01.784Z,68.90
2022-10-29T20:28:31.091Z,68.40
2022-10-29T20:31:11.742Z,68.10
2022-10-29T20:33:39.913Z,68.20
2022-10-29T20:36:08.008Z,67.80
2022-10-29T20:38:35.919Z,68.20
2022-10-29T20:41:03.760Z,68.50
2022-10-29T20:43:33.411Z,68.70
2022-10-29T20:46:02.104Z,67.80
2022-10-29T20:48:30.026Z,66.80
2022-10-29T20:50:57.952Z,67.20
2022-10-29T20:53:25.797Z,66.80
2022-10-29T20:55:53.653Z,67.30
2022-10-29T20:58:22.154Z,67.80
2022-10-29T21:00:51.472Z,69.50
2022-10-29T21:03:19.402Z,70.20
2022-10-29T21:05:47.314Z,69.80
2022-10-29T21:08:15.197Z,69.40
2022-10-29T21:10:43.102Z,69.30
2022-10-29T21:13:10.954Z,70.30
2022-10-29T21:15:38.844Z,71.40
2022-10-29T21:18:08.117Z,72.00
2022-10-29T21:20:35.999Z,72.30
2022-10-29T21:23:03.852Z,72.20
2022-10-29T21:25:31.724Z,72.60
2022-10-29T21:27:59.921Z,72.50
2022-10-29T21:30:28.031Z,72.70
2022-10-29T21:32:55.974Z,72.70
2022-10-29T21:35:25.300Z,73.20
2022-10-29T21:37:53.125Z,73.20
2022-10-29T21:40:21.010Z,73.70
2022-10-29T21:42:48.940Z,73.60
2022-10-29T21:45:16.882Z,72.40
2022-10-29T21:47:44.705Z,72.90
2022-10-29T21:50:12.571Z,73.10
2022-10-29T21:52:41.772Z,72.30
2022-10-29T21:55:09.767Z,72.90
2022-10-29T21:57:37.622Z,72.90
2022-10-29T22:00:06.273Z,72.50
2022-10-29T22:02:34.126Z,73.10
2022-10-29T22:05:01.973Z,73.10
2022-10-29T22:07:29.812Z,73.40
2022-10-29T22:09:59.043Z,73.00
2022-10-29T22:12:26.889Z,72.00
2022-10-29T22:14:54.766Z,71.00
2022-10-29T22:17:22.610Z,71.30
2022-10-29T22:19:50.486Z,71.20
2022-10-29T22:22:18.343Z,72.00
2022-10-29T22:24:46.191Z,71.20
2022-10-29T22:27:15.396Z,71.60
2022-10-29T22:29:43.406Z,71.90
2022-10-29T22:32:11.254Z,71.50
2022-10-29T22:34:39.121Z,71.00
2022-10-29T22:37:06.970Z,70.50
2022-10-29T22:39:34.833Z,71.30
2022-10-29T22:42:02.672Z,71.30
2022-10-29T22:44:31.944Z,71.90
2022-10-29T22:46:59.794Z,72.00
2022-10-29T22:49:27.662Z,71.50
2022-10-29T22:51:58.731Z,69.80
2022-10-29T22:54:29.298Z,69.70
2022-10-29T22:56:57.184Z,71.20
2022-10-29T22:59:25.028Z,71.90
2022-10-29T23:01:54.391Z,71.60
2022-10-29T23:04:22.716Z,71.70
2022-10-29T23:06:50.574Z,72.60
2022-10-29T23:09:18.426Z,73.60
2022-10-29T23:11:46.263Z,73.20
2022-10-29T23:14:14.115Z,72.90
2022-10-29T23:16:41.960Z,74.00
2022-10-29T23:19:12.259Z,73.70
2022-10-29T23:21:40.142Z,73.40
2022-10-29T23:24:08.561Z,75.00
2022-10-29T23:26:36.387Z,74.40
2022-10-29T23:29:04.264Z,75.10
2022-10-29T23:31:32.107Z,75.10
2022-10-29T23:33:59.964Z,76.00
2022-10-29T23:36:29.217Z,76.10
2022-10-29T23:38:57.203Z,75.70
2022-10-29T23:41:25.138Z,76.20
2022-10-29T23:43:53.018Z,76.60
2022-10-29T23:46:20.847Z,76.00
2022-10-29T23:48:48.710Z,76.40
2022-10-29T23:51:16.556Z,76.30
2022-10-29T23:53:45.791Z,77.00
2022-10-29T23:56:13.636Z,76.80
2022-10-29T23:58:41.479Z,76.30
